Главная страница
METAR-TAF:

METAR-TAF

Аэропорты :

Хальмстад, Швеция

широта: 56-41N, долгота: 012-50E, высота над уровнем моря: 30 м

Текущие метеонаблюдения

Эта сводка был подготовлена 1 час и 23 минут назад, в 10:20 UTC
Ветер 4 Узел от северный, изменяющийся между западно-северо-западный и восточно-северо-восточный
Температура 29°C
Влажность 40%
Давление 1021 hPa
Видимость 10 км и более
Нет облачности ниже 1500 м, и нет кучево-дождевой облачности

METAR: ESMT 091020Z 35004KT 300V060 CAVOK 29/14 Q1021

Время: 13:43 (11:43 UTC)

Прогноз

Эта сводка был подготовлена 35 минут назад, в 11:08 UTC
Прогноз действительный с 09-го 12 UTC до 09-го 18 UTC
Ветер 8 Узел от западно-северо-западный
Видимость 10 км и более
Нет облачности ниже 1500 м, и нет кучево-дождевой облачности

TAF: ESMT 091108Z 0912/0918 30008KT CAVOK

Метеонаблюдения и прогнозы для более 4000 аэропортов (сводки METAR и TAF).

Имеющиеся станции представлены на карте желтыми и красными точками.

Чтобы увидеть название станции, наведите на нее мышь.

Затем щелкните, чтобы увидеть метеонаблюдения и метеопрогнозы.

Управление картой: чтобы увеличить масштаб, щелкните зеленые кнопки с черным крестиком; чтобы уменьшить масштаб, щелкните зеленую кнопку с тире; для просмотра соседних карт щелкайте зеленые стрелки.


METAR-TAF: